ADDS METAR Data

Data at: 0743 UTC 24 Oct 2017

METAR for:KFMH (Otis ANGB, MA, US)
Text:KFMH 240735Z AUTO 15015KT 8SM BKN070 18/17 A3010 RMK AO2
Temperature: 18.0°C ( 64°F)
Dewpoint: 17.0°C ( 63°F) [RH = 94%]
Pressure (altimeter):30.10 inches Hg (1019.4 mb)
Winds:from the SSE (150 degrees) at 17 MPH (15 knots; 7.7 m/s)
Visibility: 8 sm ( 13 km)
Ceiling:7000 feet AGL
Clouds: broken clouds at 7000 feet AGL
QC Flag:automated observation with no human augmentation